sensor_id;sensor_type;location;lat;lon;timestamp;P1;durP1;ratioP1;P2;durP2;ratioP2
17091;SDS011;8661;45.700;4.880;2023-03-21T00:02:21;9.00;;;6.43;;
17091;SDS011;8661;45.700;4.880;2023-03-21T00:04:48;7.80;;;6.67;;
17091;SDS011;8661;45.700;4.880;2023-03-21T00:07:15;9.20;;;6.50;;
17091;SDS011;8661;45.700;4.880;2023-03-21T00:09:41;7.20;;;5.90;;
17091;SDS011;8661;45.700;4.880;2023-03-21T00:12:08;8.50;;;6.23;;
17091;SDS011;8661;45.700;4.880;2023-03-21T00:14:36;10.67;;;6.50;;
17091;SDS011;8661;45.700;4.880;2023-03-21T00:17:05;8.90;;;5.87;;
17091;SDS011;8661;45.700;4.880;2023-03-21T00:19:31;11.03;;;6.50;;
17091;SDS011;8661;45.700;4.880;2023-03-21T00:22:02;10.10;;;6.90;;
17091;SDS011;8661;45.700;4.880;2023-03-21T00:24:30;9.53;;;6.47;;
17091;SDS011;8661;45.700;4.880;2023-03-21T00:26:56;9.47;;;6.30;;
17091;SDS011;8661;45.700;4.880;2023-03-21T00:29:26;10.53;;;6.40;;
17091;SDS011;8661;45.700;4.880;2023-03-21T00:31:56;12.13;;;6.83;;
17091;SDS011;8661;45.700;4.880;2023-03-21T00:34:24;8.87;;;6.07;;
17091;SDS011;8661;45.700;4.880;2023-03-21T00:36:51;8.90;;;6.50;;
17091;SDS011;8661;45.700;4.880;2023-03-21T00:39:18;9.30;;;6.43;;
17091;SDS011;8661;45.700;4.880;2023-03-21T00:41:46;8.03;;;6.27;;
17091;SDS011;8661;45.700;4.880;2023-03-21T00:44:14;10.70;;;6.90;;
17091;SDS011;8661;45.700;4.880;2023-03-21T00:46:41;9.77;;;6.40;;
17091;SDS011;8661;45.700;4.880;2023-03-21T00:49:08;9.93;;;6.70;;
17091;SDS011;8661;45.700;4.880;2023-03-21T00:51:36;8.77;;;6.30;;
17091;SDS011;8661;45.700;4.880;2023-03-21T00:54:03;9.40;;;6.23;;
17091;SDS011;8661;45.700;4.880;2023-03-21T00:56:31;9.27;;;6.37;;
17091;SDS011;8661;45.700;4.880;2023-03-21T00:58:58;8.23;;;6.20;;
17091;SDS011;8661;45.700;4.880;2023-03-21T01:01:25;11.37;;;6.70;;
17091;SDS011;8661;45.700;4.880;2023-03-21T01:03:56;9.27;;;5.80;;
17091;SDS011;8661;45.700;4.880;2023-03-21T01:06:27;11.83;;;6.20;;
17091;SDS011;8661;45.700;4.880;2023-03-21T01:08:55;8.87;;;5.97;;
17091;SDS011;8661;45.700;4.880;2023-03-21T01:11:23;9.50;;;6.10;;
17091;SDS011;8661;45.700;4.880;2023-03-21T01:13:51;10.50;;;6.20;;
17091;SDS011;8661;45.700;4.880;2023-03-21T01:16:18;8.57;;;5.70;;
17091;SDS011;8661;45.700;4.880;2023-03-21T01:18:45;9.80;;;5.80;;
17091;SDS011;8661;45.700;4.880;2023-03-21T01:21:12;9.53;;;6.53;;
17091;SDS011;8661;45.700;4.880;2023-03-21T01:23:40;7.73;;;5.80;;
17091;SDS011;8661;45.700;4.880;2023-03-21T01:26:09;9.40;;;6.00;;
17091;SDS011;8661;45.700;4.880;2023-03-21T01:28:38;8.77;;;5.67;;
17091;SDS011;8661;45.700;4.880;2023-03-21T01:31:06;10.23;;;5.73;;
17091;SDS011;8661;45.700;4.880;2023-03-21T01:33:33;9.73;;;5.87;;
17091;SDS011;8661;45.700;4.880;2023-03-21T01:36:01;8.93;;;5.77;;
17091;SDS011;8661;45.700;4.880;2023-03-21T01:38:28;9.27;;;5.97;;
17091;SDS011;8661;45.700;4.880;2023-03-21T01:40:55;8.33;;;6.00;;
17091;SDS011;8661;45.700;4.880;2023-03-21T01:43:27;10.67;;;6.00;;
17091;SDS011;8661;45.700;4.880;2023-03-21T01:48:57;8.60;;;5.77;;
17091;SDS011;8661;45.700;4.880;2023-03-21T01:51:26;10.77;;;6.60;;
17091;SDS011;8661;45.700;4.880;2023-03-21T01:53:55;7.83;;;6.60;;
17091;SDS011;8661;45.700;4.880;2023-03-21T01:56:25;9.33;;;6.70;;
17091;SDS011;8661;45.700;4.880;2023-03-21T01:58:57;9.13;;;6.37;;
17091;SDS011;8661;45.700;4.880;2023-03-21T02:01:32;9.63;;;5.47;;
17091;SDS011;8661;45.700;4.880;2023-03-21T02:04:02;9.17;;;5.90;;
17091;SDS011;8661;45.700;4.880;2023-03-21T02:06:34;8.53;;;5.93;;
17091;SDS011;8661;45.700;4.880;2023-03-21T02:09:07;8.37;;;5.93;;
17091;SDS011;8661;45.700;4.880;2023-03-21T02:11:37;8.27;;;6.50;;
17091;SDS011;8661;45.700;4.880;2023-03-21T02:14:07;9.27;;;6.73;;
17091;SDS011;8661;45.700;4.880;2023-03-21T02:16:42;11.03;;;7.13;;
17091;SDS011;8661;45.700;4.880;2023-03-21T02:19:24;8.90;;;6.60;;
17091;SDS011;8661;45.700;4.880;2023-03-21T02:22:13;11.20;;;6.33;;
17091;SDS011;8661;45.700;4.880;2023-03-21T02:25:23;8.33;;;5.87;;
17091;SDS011;8661;45.700;4.880;2023-03-21T02:28:08;8.83;;;6.07;;
17091;SDS011;8661;45.700;4.880;2023-03-21T02:30:59;10.43;;;6.03;;
17091;SDS011;8661;45.700;4.880;2023-03-21T02:33:46;8.07;;;5.87;;
17091;SDS011;8661;45.700;4.880;2023-03-21T02:36:54;12.10;;;7.37;;
17091;SDS011;8661;45.700;4.880;2023-03-21T02:39:31;8.80;;;6.40;;
17091;SDS011;8661;45.700;4.880;2023-03-21T02:42:12;8.63;;;6.23;;
17091;SDS011;8661;45.700;4.880;2023-03-21T02:44:45;12.40;;;6.70;;
17091;SDS011;8661;45.700;4.880;2023-03-21T02:47:17;9.67;;;6.50;;
17091;SDS011;8661;45.700;4.880;2023-03-21T02:49:49;9.57;;;6.03;;
17091;SDS011;8661;45.700;4.880;2023-03-21T02:52:22;8.97;;;5.90;;
17091;SDS011;8661;45.700;4.880;2023-03-21T02:54:51;8.73;;;6.53;;
17091;SDS011;8661;45.700;4.880;2023-03-21T02:57:20;9.27;;;5.60;;
17091;SDS011;8661;45.700;4.880;2023-03-21T02:59:47;8.97;;;6.20;;
17091;SDS011;8661;45.700;4.880;2023-03-21T03:02:15;9.90;;;5.90;;
17091;SDS011;8661;45.700;4.880;2023-03-21T03:04:46;10.73;;;6.33;;
17091;SDS011;8661;45.700;4.880;2023-03-21T03:07:16;9.97;;;6.10;;
17091;SDS011;8661;45.700;4.880;2023-03-21T03:10:00;8.10;;;5.90;;
17091;SDS011;8661;45.700;4.880;2023-03-21T03:12:38;9.30;;;6.40;;
17091;SDS011;8661;45.700;4.880;2023-03-21T03:15:15;9.13;;;6.63;;
17091;SDS011;8661;45.700;4.880;2023-03-21T03:17:50;9.80;;;6.83;;
17091;SDS011;8661;45.700;4.880;2023-03-21T03:20:31;10.23;;;6.60;;
17091;SDS011;8661;45.700;4.880;2023-03-21T03:23:07;11.33;;;6.93;;
17091;SDS011;8661;45.700;4.880;2023-03-21T03:25:40;9.37;;;6.30;;
17091;SDS011;8661;45.700;4.880;2023-03-21T03:28:13;9.30;;;7.00;;
17091;SDS011;8661;45.700;4.880;2023-03-21T03:30:43;9.77;;;6.83;;
17091;SDS011;8661;45.700;4.880;2023-03-21T03:33:11;7.50;;;6.10;;
17091;SDS011;8661;45.700;4.880;2023-03-21T03:35:41;9.33;;;6.60;;
17091;SDS011;8661;45.700;4.880;2023-03-21T03:38:09;12.33;;;7.10;;
17091;SDS011;8661;45.700;4.880;2023-03-21T03:40:38;10.20;;;6.47;;
17091;SDS011;8661;45.700;4.880;2023-03-21T03:43:09;8.27;;;6.53;;
17091;SDS011;8661;45.700;4.880;2023-03-21T03:45:41;10.23;;;6.20;;
17091;SDS011;8661;45.700;4.880;2023-03-21T03:48:13;9.43;;;6.97;;
17091;SDS011;8661;45.700;4.880;2023-03-21T03:50:43;11.93;;;7.23;;
17091;SDS011;8661;45.700;4.880;2023-03-21T03:53:18;11.43;;;7.07;;
17091;SDS011;8661;45.700;4.880;2023-03-21T03:55:47;10.40;;;7.23;;
17091;SDS011;8661;45.700;4.880;2023-03-21T03:58:16;11.43;;;6.93;;
17091;SDS011;8661;45.700;4.880;2023-03-21T04:00:57;11.17;;;6.80;;
17091;SDS011;8661;45.700;4.880;2023-03-21T04:03:28;14.40;;;6.93;;
17091;SDS011;8661;45.700;4.880;2023-03-21T04:05:55;9.40;;;6.97;;
17091;SDS011;8661;45.700;4.880;2023-03-21T04:08:23;10.03;;;6.57;;
17091;SDS011;8661;45.700;4.880;2023-03-21T04:10:51;10.23;;;6.87;;
17091;SDS011;8661;45.700;4.880;2023-03-21T04:13:17;9.97;;;6.67;;
17091;SDS011;8661;45.700;4.880;2023-03-21T04:15:44;11.30;;;6.60;;
17091;SDS011;8661;45.700;4.880;2023-03-21T04:18:11;10.90;;;7.30;;
17091;SDS011;8661;45.700;4.880;2023-03-21T04:20:38;10.03;;;6.77;;
17091;SDS011;8661;45.700;4.880;2023-03-21T04:23:05;10.93;;;7.57;;
17091;SDS011;8661;45.700;4.880;2023-03-21T04:25:34;10.33;;;7.20;;
17091;SDS011;8661;45.700;4.880;2023-03-21T04:28:01;10.23;;;6.97;;
17091;SDS011;8661;45.700;4.880;2023-03-21T04:30:28;11.63;;;7.43;;
17091;SDS011;8661;45.700;4.880;2023-03-21T04:32:58;9.77;;;7.00;;
17091;SDS011;8661;45.700;4.880;2023-03-21T04:35:25;10.10;;;6.57;;
17091;SDS011;8661;45.700;4.880;2023-03-21T04:37:52;9.40;;;6.63;;
17091;SDS011;8661;45.700;4.880;2023-03-21T04:40:19;14.53;;;6.90;;
17091;SDS011;8661;45.700;4.880;2023-03-21T04:42:47;11.13;;;7.17;;
17091;SDS011;8661;45.700;4.880;2023-03-21T04:45:14;14.47;;;7.33;;
17091;SDS011;8661;45.700;4.880;2023-03-21T04:47:42;9.23;;;6.57;;
17091;SDS011;8661;45.700;4.880;2023-03-21T04:50:10;10.97;;;6.97;;
17091;SDS011;8661;45.700;4.880;2023-03-21T04:52:38;9.50;;;6.40;;
17091;SDS011;8661;45.700;4.880;2023-03-21T04:55:05;11.27;;;7.33;;
17091;SDS011;8661;45.700;4.880;2023-03-21T04:57:34;12.77;;;7.40;;
17091;SDS011;8661;45.700;4.880;2023-03-21T05:00:03;8.13;;;6.37;;
17091;SDS011;8661;45.700;4.880;2023-03-21T05:02:34;10.07;;;6.90;;
17091;SDS011;8661;45.700;4.880;2023-03-21T05:05:01;9.17;;;6.77;;
17091;SDS011;8661;45.700;4.880;2023-03-21T05:07:28;8.93;;;6.40;;
17091;SDS011;8661;45.700;4.880;2023-03-21T05:09:56;9.57;;;7.00;;
17091;SDS011;8661;45.700;4.880;2023-03-21T05:12:23;8.57;;;6.47;;
17091;SDS011;8661;45.700;4.880;2023-03-21T05:14:50;9.63;;;6.57;;
17091;SDS011;8661;45.700;4.880;2023-03-21T05:17:18;11.53;;;7.27;;
17091;SDS011;8661;45.700;4.880;2023-03-21T05:19:47;10.23;;;6.90;;
17091;SDS011;8661;45.700;4.880;2023-03-21T05:22:14;8.23;;;7.27;;
17091;SDS011;8661;45.700;4.880;2023-03-21T05:24:43;11.70;;;7.63;;
17091;SDS011;8661;45.700;4.880;2023-03-21T05:27:14;9.73;;;7.33;;
17091;SDS011;8661;45.700;4.880;2023-03-21T05:29:59;12.93;;;7.13;;
17091;SDS011;8661;45.700;4.880;2023-03-21T05:32:27;8.67;;;6.57;;
17091;SDS011;8661;45.700;4.880;2023-03-21T05:34:54;8.37;;;6.63;;
17091;SDS011;8661;45.700;4.880;2023-03-21T05:37:21;8.57;;;6.83;;
17091;SDS011;8661;45.700;4.880;2023-03-21T05:39:48;8.70;;;6.33;;
17091;SDS011;8661;45.700;4.880;2023-03-21T05:42:15;13.03;;;6.80;;
17091;SDS011;8661;45.700;4.880;2023-03-21T05:44:43;10.03;;;6.63;;
17091;SDS011;8661;45.700;4.880;2023-03-21T05:47:10;9.80;;;6.73;;
17091;SDS011;8661;45.700;4.880;2023-03-21T05:49:39;12.23;;;6.97;;
17091;SDS011;8661;45.700;4.880;2023-03-21T05:52:07;10.27;;;6.60;;
17091;SDS011;8661;45.700;4.880;2023-03-21T05:54:34;15.30;;;7.20;;
17091;SDS011;8661;45.700;4.880;2023-03-21T05:57:01;9.07;;;6.90;;
17091;SDS011;8661;45.700;4.880;2023-03-21T05:59:28;8.90;;;6.57;;
17091;SDS011;8661;45.700;4.880;2023-03-21T06:01:55;9.73;;;7.03;;
17091;SDS011;8661;45.700;4.880;2023-03-21T06:04:21;10.00;;;7.70;;
17091;SDS011;8661;45.700;4.880;2023-03-21T06:06:50;11.43;;;7.17;;
17091;SDS011;8661;45.700;4.880;2023-03-21T06:09:17;10.07;;;6.80;;
17091;SDS011;8661;45.700;4.880;2023-03-21T06:11:45;9.70;;;7.07;;
17091;SDS011;8661;45.700;4.880;2023-03-21T06:14:13;11.13;;;7.90;;
17091;SDS011;8661;45.700;4.880;2023-03-21T06:16:41;9.93;;;7.50;;
17091;SDS011;8661;45.700;4.880;2023-03-21T06:19:08;9.63;;;7.30;;
17091;SDS011;8661;45.700;4.880;2023-03-21T06:21:35;8.23;;;7.10;;
17091;SDS011;8661;45.700;4.880;2023-03-21T06:24:03;8.93;;;7.23;;
17091;SDS011;8661;45.700;4.880;2023-03-21T06:26:30;10.93;;;7.80;;
17091;SDS011;8661;45.700;4.880;2023-03-21T06:29:00;11.00;;;7.60;;
17091;SDS011;8661;45.700;4.880;2023-03-21T06:31:28;15.50;;;8.23;;
17091;SDS011;8661;45.700;4.880;2023-03-21T06:34:01;13.40;;;7.77;;
17091;SDS011;8661;45.700;4.880;2023-03-21T06:36:31;11.37;;;7.57;;
17091;SDS011;8661;45.700;4.880;2023-03-21T06:38:58;11.13;;;7.57;;
17091;SDS011;8661;45.700;4.880;2023-03-21T06:41:26;13.30;;;7.63;;
17091;SDS011;8661;45.700;4.880;2023-03-21T06:43:53;11.40;;;7.30;;
17091;SDS011;8661;45.700;4.880;2023-03-21T06:46:20;11.70;;;7.53;;
17091;SDS011;8661;45.700;4.880;2023-03-21T06:48:47;9.30;;;7.00;;
17091;SDS011;8661;45.700;4.880;2023-03-21T06:51:14;10.27;;;7.37;;
17091;SDS011;8661;45.700;4.880;2023-03-21T06:53:41;8.07;;;6.53;;
17091;SDS011;8661;45.700;4.880;2023-03-21T06:56:09;10.03;;;7.53;;
17091;SDS011;8661;45.700;4.880;2023-03-21T06:58:39;9.60;;;7.33;;
17091;SDS011;8661;45.700;4.880;2023-03-21T07:01:06;8.40;;;6.73;;
17091;SDS011;8661;45.700;4.880;2023-03-21T07:03:33;11.90;;;7.43;;
17091;SDS011;8661;45.700;4.880;2023-03-21T07:06:04;12.73;;;7.47;;
17091;SDS011;8661;45.700;4.880;2023-03-21T07:08:33;12.33;;;8.23;;
17091;SDS011;8661;45.700;4.880;2023-03-21T07:11:01;9.97;;;7.63;;
17091;SDS011;8661;45.700;4.880;2023-03-21T07:13:28;10.47;;;7.70;;
17091;SDS011;8661;45.700;4.880;2023-03-21T07:15:57;10.63;;;7.93;;
17091;SDS011;8661;45.700;4.880;2023-03-21T07:18:24;10.60;;;8.17;;
17091;SDS011;8661;45.700;4.880;2023-03-21T07:20:51;12.90;;;9.43;;
17091;SDS011;8661;45.700;4.880;2023-03-21T07:23:20;14.50;;;10.13;;
17091;SDS011;8661;45.700;4.880;2023-03-21T07:25:49;14.80;;;8.60;;
17091;SDS011;8661;45.700;4.880;2023-03-21T07:28:17;15.03;;;11.10;;
17091;SDS011;8661;45.700;4.880;2023-03-21T07:30:44;12.63;;;9.07;;
17091;SDS011;8661;45.700;4.880;2023-03-21T07:33:18;12.23;;;8.17;;
17091;SDS011;8661;45.700;4.880;2023-03-21T07:35:45;11.03;;;8.53;;
17091;SDS011;8661;45.700;4.880;2023-03-21T07:38:12;11.23;;;8.43;;
17091;SDS011;8661;45.700;4.880;2023-03-21T07:40:40;13.27;;;7.97;;
17091;SDS011;8661;45.700;4.880;2023-03-21T07:43:07;12.50;;;8.03;;
17091;SDS011;8661;45.700;4.880;2023-03-21T07:45:34;11.37;;;7.67;;
17091;SDS011;8661;45.700;4.880;2023-03-21T07:48:01;16.90;;;8.07;;
17091;SDS011;8661;45.700;4.880;2023-03-21T07:50:29;10.77;;;8.30;;
17091;SDS011;8661;45.700;4.880;2023-03-21T07:52:56;12.13;;;8.50;;
17091;SDS011;8661;45.700;4.880;2023-03-21T07:55:23;11.23;;;8.90;;
17091;SDS011;8661;45.700;4.880;2023-03-21T07:57:50;12.37;;;8.47;;
17091;SDS011;8661;45.700;4.880;2023-03-21T08:00:18;14.07;;;8.70;;
17091;SDS011;8661;45.700;4.880;2023-03-21T08:02:48;13.07;;;8.90;;
17091;SDS011;8661;45.700;4.880;2023-03-21T08:05:18;10.13;;;8.07;;
17091;SDS011;8661;45.700;4.880;2023-03-21T08:07:47;10.80;;;8.13;;
17091;SDS011;8661;45.700;4.880;2023-03-21T08:10:14;10.73;;;7.80;;
17091;SDS011;8661;45.700;4.880;2023-03-21T08:12:42;12.63;;;8.17;;
17091;SDS011;8661;45.700;4.880;2023-03-21T08:15:09;11.23;;;7.93;;
17091;SDS011;8661;45.700;4.880;2023-03-21T08:17:37;10.60;;;7.60;;
17091;SDS011;8661;45.700;4.880;2023-03-21T08:20:06;11.50;;;7.80;;
17091;SDS011;8661;45.700;4.880;2023-03-21T08:22:37;11.27;;;7.67;;
17091;SDS011;8661;45.700;4.880;2023-03-21T08:25:06;8.23;;;6.87;;
17091;SDS011;8661;45.700;4.880;2023-03-21T08:27:35;16.27;;;9.50;;
17091;SDS011;8661;45.700;4.880;2023-03-21T08:30:02;18.57;;;11.97;;
17091;SDS011;8661;45.700;4.880;2023-03-21T08:32:29;17.17;;;10.87;;
17091;SDS011;8661;45.700;4.880;2023-03-21T08:34:57;10.67;;;8.27;;
17091;SDS011;8661;45.700;4.880;2023-03-21T08:37:25;11.27;;;9.53;;
17091;SDS011;8661;45.700;4.880;2023-03-21T08:39:53;15.53;;;7.87;;
17091;SDS011;8661;45.700;4.880;2023-03-21T08:42:21;8.90;;;6.57;;
17091;SDS011;8661;45.700;4.880;2023-03-21T08:44:48;7.70;;;6.17;;
17091;SDS011;8661;45.700;4.880;2023-03-21T08:47:15;11.60;;;6.50;;
17091;SDS011;8661;45.700;4.880;2023-03-21T08:49:42;7.80;;;6.47;;
17091;SDS011;8661;45.700;4.880;2023-03-21T08:52:11;8.53;;;7.27;;
17091;SDS011;8661;45.700;4.880;2023-03-21T08:54:38;8.03;;;6.70;;
17091;SDS011;8661;45.700;4.880;2023-03-21T08:57:05;7.80;;;6.87;;
17091;SDS011;8661;45.700;4.880;2023-03-21T08:59:36;8.47;;;7.33;;
17091;SDS011;8661;45.700;4.880;2023-03-21T09:02:03;7.43;;;6.40;;
17091;SDS011;8661;45.700;4.880;2023-03-21T09:04:33;9.53;;;7.67;;
17091;SDS011;8661;45.700;4.880;2023-03-21T09:07:00;7.00;;;6.10;;
17091;SDS011;8661;45.700;4.880;2023-03-21T09:09:27;7.90;;;6.70;;
17091;SDS011;8661;45.700;4.880;2023-03-21T09:11:54;9.97;;;7.00;;
17091;SDS011;8661;45.700;4.880;2023-03-21T09:14:21;7.07;;;6.20;;
17091;SDS011;8661;45.700;4.880;2023-03-21T09:16:49;6.90;;;6.00;;
17091;SDS011;8661;45.700;4.880;2023-03-21T09:19:16;7.47;;;6.70;;
17091;SDS011;8661;45.700;4.880;2023-03-21T09:21:43;10.83;;;6.47;;
17091;SDS011;8661;45.700;4.880;2023-03-21T09:24:11;8.80;;;6.00;;
17091;SDS011;8661;45.700;4.880;2023-03-21T09:26:39;9.37;;;6.67;;
17091;SDS011;8661;45.700;4.880;2023-03-21T09:29:08;7.00;;;6.30;;
17091;SDS011;8661;45.700;4.880;2023-03-21T09:31:35;7.17;;;6.17;;
17091;SDS011;8661;45.700;4.880;2023-03-21T09:34:05;8.17;;;6.90;;
17091;SDS011;8661;45.700;4.880;2023-03-21T09:36:32;8.87;;;5.90;;
17091;SDS011;8661;45.700;4.880;2023-03-21T09:39:00;6.70;;;5.73;;
17091;SDS011;8661;45.700;4.880;2023-03-21T09:41:36;10.30;;;6.10;;
17091;SDS011;8661;45.700;4.880;2023-03-21T09:44:24;7.90;;;6.40;;
17091;SDS011;8661;45.700;4.880;2023-03-21T09:46:59;9.03;;;6.00;;
17091;SDS011;8661;45.700;4.880;2023-03-21T09:49:33;9.03;;;6.80;;
17091;SDS011;8661;45.700;4.880;2023-03-21T09:52:08;9.90;;;6.47;;
17091;SDS011;8661;45.700;4.880;2023-03-21T09:54:41;8.00;;;7.10;;
17091;SDS011;8661;45.700;4.880;2023-03-21T09:57:10;14.50;;;6.80;;
17091;SDS011;8661;45.700;4.880;2023-03-21T09:59:44;6.63;;;5.83;;
17091;SDS011;8661;45.700;4.880;2023-03-21T10:02:18;7.00;;;6.27;;
17091;SDS011;8661;45.700;4.880;2023-03-21T10:05:05;7.97;;;5.43;;
17091;SDS011;8661;45.700;4.880;2023-03-21T10:07:38;7.73;;;5.87;;
17091;SDS011;8661;45.700;4.880;2023-03-21T10:10:10;7.53;;;6.30;;
17091;SDS011;8661;45.700;4.880;2023-03-21T10:12:43;6.57;;;5.97;;
17091;SDS011;8661;45.700;4.880;2023-03-21T10:15:14;8.13;;;6.23;;
17091;SDS011;8661;45.700;4.880;2023-03-21T10:17:43;8.40;;;6.10;;
17091;SDS011;8661;45.700;4.880;2023-03-21T10:20:17;7.03;;;6.00;;
17091;SDS011;8661;45.700;4.880;2023-03-21T10:22:46;6.53;;;5.70;;
17091;SDS011;8661;45.700;4.880;2023-03-21T10:25:16;6.77;;;5.10;;
17091;SDS011;8661;45.700;4.880;2023-03-21T10:27:46;6.13;;;5.20;;
17091;SDS011;8661;45.700;4.880;2023-03-21T10:30:19;8.60;;;5.87;;
17091;SDS011;8661;45.700;4.880;2023-03-21T10:33:00;5.87;;;5.13;;
17091;SDS011;8661;45.700;4.880;2023-03-21T10:35:31;6.67;;;5.50;;
17091;SDS011;8661;45.700;4.880;2023-03-21T10:38:01;7.23;;;5.10;;
17091;SDS011;8661;45.700;4.880;2023-03-21T10:40:28;6.17;;;4.80;;
17091;SDS011;8661;45.700;4.880;2023-03-21T10:42:55;7.03;;;5.53;;
17091;SDS011;8661;45.700;4.880;2023-03-21T10:45:40;8.57;;;5.33;;
17091;SDS011;8661;45.700;4.880;2023-03-21T10:48:07;6.40;;;5.53;;
17091;SDS011;8661;45.700;4.880;2023-03-21T10:50:36;7.60;;;5.53;;
17091;SDS011;8661;45.700;4.880;2023-03-21T10:53:05;5.40;;;4.73;;
17091;SDS011;8661;45.700;4.880;2023-03-21T10:55:41;5.90;;;4.77;;
17091;SDS011;8661;45.700;4.880;2023-03-21T10:58:12;5.90;;;4.57;;
17091;SDS011;8661;45.700;4.880;2023-03-21T11:00:43;6.27;;;5.20;;
17091;SDS011;8661;45.700;4.880;2023-03-21T11:03:17;5.97;;;4.50;;
17091;SDS011;8661;45.700;4.880;2023-03-21T11:05:51;7.90;;;4.43;;
17091;SDS011;8661;45.700;4.880;2023-03-21T11:08:20;5.53;;;4.40;;
17091;SDS011;8661;45.700;4.880;2023-03-21T11:10:50;7.03;;;4.80;;
17091;SDS011;8661;45.700;4.880;2023-03-21T11:13:23;5.60;;;4.60;;
17091;SDS011;8661;45.700;4.880;2023-03-21T11:15:52;5.40;;;4.23;;
17091;SDS011;8661;45.700;4.880;2023-03-21T11:18:20;5.37;;;3.87;;
17091;SDS011;8661;45.700;4.880;2023-03-21T11:20:50;5.10;;;3.83;;
17091;SDS011;8661;45.700;4.880;2023-03-21T11:23:19;5.40;;;3.80;;
17091;SDS011;8661;45.700;4.880;2023-03-21T11:25:47;4.30;;;3.90;;
17091;SDS011;8661;45.700;4.880;2023-03-21T11:28:16;4.77;;;3.50;;
17091;SDS011;8661;45.700;4.880;2023-03-21T11:30:50;4.87;;;3.50;;
17091;SDS011;8661;45.700;4.880;2023-03-21T11:33:19;5.73;;;3.87;;
17091;SDS011;8661;45.700;4.880;2023-03-21T11:35:58;4.30;;;3.70;;
17091;SDS011;8661;45.700;4.880;2023-03-21T11:38:28;7.10;;;3.80;;
17091;SDS011;8661;45.700;4.880;2023-03-21T11:40:58;4.57;;;3.20;;
17091;SDS011;8661;45.700;4.880;2023-03-21T11:43:27;3.97;;;3.20;;
17091;SDS011;8661;45.700;4.880;2023-03-21T11:45:57;5.13;;;3.27;;
17091;SDS011;8661;45.700;4.880;2023-03-21T11:48:25;4.00;;;3.43;;
17091;SDS011;8661;45.700;4.880;2023-03-21T11:50:55;4.07;;;2.90;;
17091;SDS011;8661;45.700;4.880;2023-03-21T11:53:32;3.93;;;2.90;;
17091;SDS011;8661;45.700;4.880;2023-03-21T11:56:13;5.90;;;2.63;;
17091;SDS011;8661;45.700;4.880;2023-03-21T11:58:51;5.23;;;2.60;;
17091;SDS011;8661;45.700;4.880;2023-03-21T12:01:29;3.57;;;2.70;;
17091;SDS011;8661;45.700;4.880;2023-03-21T12:04:19;3.67;;;2.70;;
17091;SDS011;8661;45.700;4.880;2023-03-21T12:06:53;6.13;;;2.47;;
17091;SDS011;8661;45.700;4.880;2023-03-21T12:09:32;4.50;;;2.60;;
17091;SDS011;8661;45.700;4.880;2023-03-21T12:12:08;3.27;;;2.20;;
17091;SDS011;8661;45.700;4.880;2023-03-21T12:14:46;3.00;;;2.10;;
17091;SDS011;8661;45.700;4.880;2023-03-21T12:17:26;3.37;;;2.23;;
17091;SDS011;8661;45.700;4.880;2023-03-21T12:20:16;3.67;;;1.80;;
17091;SDS011;8661;45.700;4.880;2023-03-21T12:22:55;6.90;;;2.00;;
17091;SDS011;8661;45.700;4.880;2023-03-21T12:25:41;3.10;;;1.90;;
17091;SDS011;8661;45.700;4.880;2023-03-21T12:28:22;2.63;;;2.10;;
17091;SDS011;8661;45.700;4.880;2023-03-21T12:30:59;2.43;;;1.90;;
17091;SDS011;8661;45.700;4.880;2023-03-21T12:36:36;3.20;;;1.97;;
17091;SDS011;8661;45.700;4.880;2023-03-21T12:39:20;5.70;;;1.87;;
17091;SDS011;8661;45.700;4.880;2023-03-21T12:41:55;3.80;;;1.80;;
17091;SDS011;8661;45.700;4.880;2023-03-21T12:44:50;3.73;;;2.30;;
17091;SDS011;8661;45.700;4.880;2023-03-21T12:47:22;4.43;;;1.50;;
17091;SDS011;8661;45.700;4.880;2023-03-21T12:49:53;5.87;;;2.37;;
17091;SDS011;8661;45.700;4.880;2023-03-21T12:52:25;7.40;;;4.00;;
17091;SDS011;8661;45.700;4.880;2023-03-21T12:54:57;3.13;;;1.70;;
17091;SDS011;8661;45.700;4.880;2023-03-21T12:57:28;3.10;;;1.60;;
17091;SDS011;8661;45.700;4.880;2023-03-21T12:59:59;2.60;;;1.90;;
17091;SDS011;8661;45.700;4.880;2023-03-21T13:02:36;2.47;;;1.87;;
17091;SDS011;8661;45.700;4.880;2023-03-21T13:05:09;6.10;;;1.97;;
17091;SDS011;8661;45.700;4.880;2023-03-21T13:07:44;4.63;;;1.80;;
17091;SDS011;8661;45.700;4.880;2023-03-21T13:10:16;4.20;;;1.47;;
17091;SDS011;8661;45.700;4.880;2023-03-21T13:12:47;4.17;;;1.70;;
17091;SDS011;8661;45.700;4.880;2023-03-21T13:15:29;3.53;;;1.97;;
17091;SDS011;8661;45.700;4.880;2023-03-21T13:18:24;2.93;;;1.90;;
17091;SDS011;8661;45.700;4.880;2023-03-21T13:21:18;3.43;;;1.90;;
17091;SDS011;8661;45.700;4.880;2023-03-21T13:23:54;3.33;;;2.00;;
17091;SDS011;8661;45.700;4.880;2023-03-21T13:26:35;6.87;;;2.13;;
17091;SDS011;8661;45.700;4.880;2023-03-21T13:29:11;7.47;;;2.57;;
17091;SDS011;8661;45.700;4.880;2023-03-21T13:31:42;3.13;;;2.13;;
17091;SDS011;8661;45.700;4.880;2023-03-21T13:34:10;3.73;;;2.13;;
17091;SDS011;8661;45.700;4.880;2023-03-21T13:36:38;3.80;;;2.33;;
17091;SDS011;8661;45.700;4.880;2023-03-21T13:39:13;5.10;;;2.70;;
17091;SDS011;8661;45.700;4.880;2023-03-21T13:41:46;4.63;;;2.50;;
17091;SDS011;8661;45.700;4.880;2023-03-21T13:44:24;7.07;;;2.27;;
17091;SDS011;8661;45.700;4.880;2023-03-21T13:46:58;4.53;;;2.50;;
17091;SDS011;8661;45.700;4.880;2023-03-21T13:49:27;3.50;;;2.03;;
17091;SDS011;8661;45.700;4.880;2023-03-21T13:51:58;5.07;;;3.00;;
17091;SDS011;8661;45.700;4.880;2023-03-21T13:54:27;4.80;;;2.50;;
17091;SDS011;8661;45.700;4.880;2023-03-21T13:57:19;4.67;;;2.73;;
17091;SDS011;8661;45.700;4.880;2023-03-21T13:59:47;6.97;;;2.70;;
17091;SDS011;8661;45.700;4.880;2023-03-21T14:05:19;4.83;;;2.80;;
17091;SDS011;8661;45.700;4.880;2023-03-21T14:07:48;5.87;;;2.70;;
17091;SDS011;8661;45.700;4.880;2023-03-21T14:10:21;4.93;;;2.77;;
17091;SDS011;8661;45.700;4.880;2023-03-21T14:12:57;7.57;;;2.90;;
17091;SDS011;8661;45.700;4.880;2023-03-21T14:15:26;4.23;;;2.47;;
17091;SDS011;8661;45.700;4.880;2023-03-21T14:17:59;3.73;;;2.97;;
17091;SDS011;8661;45.700;4.880;2023-03-21T14:20:28;3.60;;;2.47;;
17091;SDS011;8661;45.700;4.880;2023-03-21T14:22:57;3.70;;;2.63;;
17091;SDS011;8661;45.700;4.880;2023-03-21T14:25:25;4.40;;;2.60;;
17091;SDS011;8661;45.700;4.880;2023-03-21T14:28:00;3.23;;;2.70;;
17091;SDS011;8661;45.700;4.880;2023-03-21T14:30:31;5.70;;;2.53;;
17091;SDS011;8661;45.700;4.880;2023-03-21T14:33:01;3.33;;;2.57;;
17091;SDS011;8661;45.700;4.880;2023-03-21T14:35:33;4.50;;;2.40;;
17091;SDS011;8661;45.700;4.880;2023-03-21T14:38:02;4.67;;;2.40;;
17091;SDS011;8661;45.700;4.880;2023-03-21T14:40:31;5.43;;;2.87;;
17091;SDS011;8661;45.700;4.880;2023-03-21T14:43:02;5.17;;;2.57;;
17091;SDS011;8661;45.700;4.880;2023-03-21T14:45:30;5.73;;;3.00;;
17091;SDS011;8661;45.700;4.880;2023-03-21T14:48:03;4.83;;;2.53;;
17091;SDS011;8661;45.700;4.880;2023-03-21T14:50:33;7.13;;;2.50;;
17091;SDS011;8661;45.700;4.880;2023-03-21T14:53:05;5.87;;;2.20;;
17091;SDS011;8661;45.700;4.880;2023-03-21T14:55:34;3.73;;;2.17;;
17091;SDS011;8661;45.700;4.880;2023-03-21T14:58:10;4.20;;;2.20;;
17091;SDS011;8661;45.700;4.880;2023-03-21T15:00:41;5.70;;;2.67;;
17091;SDS011;8661;45.700;4.880;2023-03-21T15:03:09;6.27;;;3.17;;
17091;SDS011;8661;45.700;4.880;2023-03-21T15:05:37;4.83;;;2.53;;
17091;SDS011;8661;45.700;4.880;2023-03-21T15:08:07;5.67;;;2.30;;
17091;SDS011;8661;45.700;4.880;2023-03-21T15:10:39;5.30;;;2.73;;
17091;SDS011;8661;45.700;4.880;2023-03-21T15:13:13;3.50;;;2.50;;
17091;SDS011;8661;45.700;4.880;2023-03-21T15:15:41;4.00;;;2.40;;
17091;SDS011;8661;45.700;4.880;2023-03-21T15:18:10;5.37;;;2.40;;
17091;SDS011;8661;45.700;4.880;2023-03-21T15:20:40;6.73;;;3.00;;
17091;SDS011;8661;45.700;4.880;2023-03-21T15:23:08;4.50;;;2.40;;
17091;SDS011;8661;45.700;4.880;2023-03-21T15:25:39;7.17;;;2.40;;
17091;SDS011;8661;45.700;4.880;2023-03-21T15:28:08;6.23;;;2.70;;
17091;SDS011;8661;45.700;4.880;2023-03-21T15:30:39;10.33;;;2.70;;